sensor_id;sensor_type;location;lat;lon;timestamp;pressure;altitude;pressure_sealevel;temperature;humidity
75998;BME280;64685;48.762;44.822;2023-07-28T00:03:06;100321.50;;;23.70;48.86
75998;BME280;64685;48.762;44.822;2023-07-28T00:08:08;100331.34;;;23.59;49.31
75998;BME280;64685;48.762;44.822;2023-07-28T00:13:11;100319.66;;;23.46;49.82
75998;BME280;64685;48.762;44.822;2023-07-28T00:18:15;100308.28;;;23.43;50.06
75998;BME280;64685;48.762;44.822;2023-07-28T00:23:20;100313.22;;;23.35;50.63
75998;BME280;64685;48.762;44.822;2023-07-28T00:28:23;100328.41;;;23.22;50.93
75998;BME280;64685;48.762;44.822;2023-07-28T00:33:27;100332.53;;;23.07;51.48
75998;BME280;64685;48.762;44.822;2023-07-28T00:38:31;100340.00;;;22.80;52.38
75998;BME280;64685;48.762;44.822;2023-07-28T00:43:34;100344.09;;;22.72;52.92
75998;BME280;64685;48.762;44.822;2023-07-28T00:48:37;100364.09;;;22.54;53.42
75998;BME280;64685;48.762;44.822;2023-07-28T00:53:40;100349.91;;;22.44;53.43
75998;BME280;64685;48.762;44.822;2023-07-28T00:58:43;100357.63;;;22.33;54.07
75998;BME280;64685;48.762;44.822;2023-07-28T01:03:46;100357.22;;;22.38;53.93
75998;BME280;64685;48.762;44.822;2023-07-28T01:08:56;100363.31;;;22.36;54.64
75998;BME280;64685;48.762;44.822;2023-07-28T01:13:59;100366.19;;;22.29;55.04
75998;BME280;64685;48.762;44.822;2023-07-28T01:19:01;100353.19;;;22.18;55.59
75998;BME280;64685;48.762;44.822;2023-07-28T01:29:12;100348.75;;;22.10;55.85
75998;BME280;64685;48.762;44.822;2023-07-28T01:34:17;100343.50;;;21.98;56.55
75998;BME280;64685;48.762;44.822;2023-07-28T01:39:20;100349.19;;;21.98;56.79
75998;BME280;64685;48.762;44.822;2023-07-28T01:44:24;100349.59;;;21.93;56.82
75998;BME280;64685;48.762;44.822;2023-07-28T01:49:27;100360.16;;;21.99;56.82
75998;BME280;64685;48.762;44.822;2023-07-28T01:54:29;100360.94;;;22.00;56.69
75998;BME280;64685;48.762;44.822;2023-07-28T01:59:32;100366.25;;;21.91;57.22
75998;BME280;64685;48.762;44.822;2023-07-28T02:04:35;100364.59;;;22.11;57.24
75998;BME280;64685;48.762;44.822;2023-07-28T02:09:38;100352.16;;;22.91;55.62
75998;BME280;64685;48.762;44.822;2023-07-28T02:14:40;100358.38;;;23.44;54.40
75998;BME280;64685;48.762;44.822;2023-07-28T02:19:43;100354.00;;;23.80;53.93
75998;BME280;64685;48.762;44.822;2023-07-28T02:24:45;100352.00;;;24.21;53.12
75998;BME280;64685;48.762;44.822;2023-07-28T02:29:48;100355.50;;;24.72;51.98
75998;BME280;64685;48.762;44.822;2023-07-28T02:34:51;100354.44;;;25.19;50.46
75998;BME280;64685;48.762;44.822;2023-07-28T02:39:54;100366.63;;;25.53;49.41
75998;BME280;64685;48.762;44.822;2023-07-28T02:44:56;100358.69;;;25.91;48.58
75998;BME280;64685;48.762;44.822;2023-07-28T02:49:59;100356.16;;;26.39;47.49
75998;BME280;64685;48.762;44.822;2023-07-28T02:55:04;100345.91;;;27.19;46.46
75998;BME280;64685;48.762;44.822;2023-07-28T03:00:08;100353.28;;;27.88;45.07
75998;BME280;64685;48.762;44.822;2023-07-28T03:05:13;100351.03;;;28.56;43.65
75998;BME280;64685;48.762;44.822;2023-07-28T03:10:39;100351.06;;;28.97;43.19
75998;BME280;64685;48.762;44.822;2023-07-28T03:15:41;100336.06;;;29.18;42.49
75998;BME280;64685;48.762;44.822;2023-07-28T03:20:45;100332.03;;;29.78;41.01
75998;BME280;64685;48.762;44.822;2023-07-28T03:25:48;100342.69;;;30.27;40.54
75998;BME280;64685;48.762;44.822;2023-07-28T03:30:51;100344.72;;;30.61;39.24
75998;BME280;64685;48.762;44.822;2023-07-28T03:35:54;100342.22;;;31.06;38.48
75998;BME280;64685;48.762;44.822;2023-07-28T03:40:58;100343.94;;;31.55;37.35
75998;BME280;64685;48.762;44.822;2023-07-28T03:46:01;100328.81;;;32.48;36.51
75998;BME280;64685;48.762;44.822;2023-07-28T03:51:03;100330.31;;;32.04;35.28
75998;BME280;64685;48.762;44.822;2023-07-28T03:56:07;100323.31;;;32.23;35.03
75998;BME280;64685;48.762;44.822;2023-07-28T04:01:09;100324.63;;;32.58;34.86
75998;BME280;64685;48.762;44.822;2023-07-28T04:06:12;100322.69;;;32.64;33.48
75998;BME280;64685;48.762;44.822;2023-07-28T04:11:15;100321.88;;;32.82;33.07
75998;BME280;64685;48.762;44.822;2023-07-28T04:16:18;100316.88;;;33.09;33.42
75998;BME280;64685;48.762;44.822;2023-07-28T04:21:21;100307.75;;;33.85;31.96
75998;BME280;64685;48.762;44.822;2023-07-28T04:26:24;100327.19;;;34.17;31.17
75998;BME280;64685;48.762;44.822;2023-07-28T04:31:33;100322.13;;;34.50;31.24
75998;BME280;64685;48.762;44.822;2023-07-28T04:36:42;100316.56;;;35.42;29.98
75998;BME280;64685;48.762;44.822;2023-07-28T04:41:45;100315.16;;;35.52;29.29
75998;BME280;64685;48.762;44.822;2023-07-28T04:46:48;100310.34;;;35.35;29.01
75998;BME280;64685;48.762;44.822;2023-07-28T04:51:51;100300.16;;;35.10;30.14
75998;BME280;64685;48.762;44.822;2023-07-28T04:57:14;100308.69;;;35.63;28.80
75998;BME280;64685;48.762;44.822;2023-07-28T05:02:18;100310.22;;;35.73;28.60
75998;BME280;64685;48.762;44.822;2023-07-28T05:07:21;100297.31;;;36.14;29.38
75998;BME280;64685;48.762;44.822;2023-07-28T05:12:23;100299.38;;;36.48;28.54
75998;BME280;64685;48.762;44.822;2023-07-28T05:17:26;100293.50;;;36.62;27.55
75998;BME280;64685;48.762;44.822;2023-07-28T05:22:52;100285.66;;;35.59;28.63
75998;BME280;64685;48.762;44.822;2023-07-28T05:27:57;100286.69;;;35.91;28.09
75998;BME280;64685;48.762;44.822;2023-07-28T05:33:01;100291.69;;;36.65;26.87
75998;BME280;64685;48.762;44.822;2023-07-28T05:38:24;100280.22;;;36.81;27.05
75998;BME280;64685;48.762;44.822;2023-07-28T05:43:27;100271.38;;;36.96;26.83
75998;BME280;64685;48.762;44.822;2023-07-28T05:48:31;100271.09;;;37.19;26.73
75998;BME280;64685;48.762;44.822;2023-07-28T05:53:34;100289.97;;;37.04;26.29
75998;BME280;64685;48.762;44.822;2023-07-28T05:58:40;100265.53;;;36.96;27.02
75998;BME280;64685;48.762;44.822;2023-07-28T06:03:43;100255.91;;;37.77;25.46
75998;BME280;64685;48.762;44.822;2023-07-28T06:08:54;100257.81;;;37.49;25.58
75998;BME280;64685;48.762;44.822;2023-07-28T06:13:57;100245.13;;;37.89;25.27
75998;BME280;64685;48.762;44.822;2023-07-28T06:19:01;100253.09;;;37.94;25.45
75998;BME280;64685;48.762;44.822;2023-07-28T06:24:05;100237.31;;;38.11;25.21
75998;BME280;64685;48.762;44.822;2023-07-28T06:29:08;100228.72;;;38.61;25.05
75998;BME280;64685;48.762;44.822;2023-07-28T06:34:11;100220.00;;;38.72;24.87
75998;BME280;64685;48.762;44.822;2023-07-28T06:39:14;100226.72;;;39.05;23.28
75998;BME280;64685;48.762;44.822;2023-07-28T06:44:16;100200.13;;;38.87;23.95
75998;BME280;64685;48.762;44.822;2023-07-28T06:49:20;100192.16;;;38.98;23.87
75998;BME280;64685;48.762;44.822;2023-07-28T06:54:23;100199.31;;;38.86;23.86
75998;BME280;64685;48.762;44.822;2023-07-28T06:59:26;100184.06;;;39.98;22.56
75998;BME280;64685;48.762;44.822;2023-07-28T07:04:29;100186.91;;;40.20;21.51
75998;BME280;64685;48.762;44.822;2023-07-28T07:09:32;100178.53;;;39.67;22.01
75998;BME280;64685;48.762;44.822;2023-07-28T07:14:35;100158.97;;;40.65;21.46
75998;BME280;64685;48.762;44.822;2023-07-28T07:19:40;100150.19;;;40.08;21.50
75998;BME280;64685;48.762;44.822;2023-07-28T07:24:43;100141.31;;;40.30;21.00
75998;BME280;64685;48.762;44.822;2023-07-28T07:29:45;100115.41;;;39.93;22.00
75998;BME280;64685;48.762;44.822;2023-07-28T07:34:48;100105.63;;;39.80;21.36
75998;BME280;64685;48.762;44.822;2023-07-28T07:39:51;100095.75;;;39.94;21.41
75998;BME280;64685;48.762;44.822;2023-07-28T07:44:54;100113.13;;;39.70;21.67
75998;BME280;64685;48.762;44.822;2023-07-28T07:49:56;100073.06;;;40.05;21.42
75998;BME280;64685;48.762;44.822;2023-07-28T07:54:59;100069.56;;;40.07;21.47
75998;BME280;64685;48.762;44.822;2023-07-28T08:00:02;100087.56;;;40.27;21.28
75998;BME280;64685;48.762;44.822;2023-07-28T08:05:13;100066.78;;;40.31;21.16
75998;BME280;64685;48.762;44.822;2023-07-28T08:10:16;100060.53;;;40.80;20.67
75998;BME280;64685;48.762;44.822;2023-07-28T08:15:19;100053.66;;;39.97;21.42
75998;BME280;64685;48.762;44.822;2023-07-28T08:20:22;100050.19;;;39.47;21.60
75998;BME280;64685;48.762;44.822;2023-07-28T08:25:25;100035.16;;;39.10;22.16
75998;BME280;64685;48.762;44.822;2023-07-28T08:30:27;100012.38;;;38.70;22.16
75998;BME280;64685;48.762;44.822;2023-07-28T08:35:30;100017.41;;;38.75;21.16
75998;BME280;64685;48.762;44.822;2023-07-28T08:40:34;100056.63;;;39.18;20.41
75998;BME280;64685;48.762;44.822;2023-07-28T08:45:36;100017.88;;;39.80;19.96
75998;BME280;64685;48.762;44.822;2023-07-28T08:50:40;99990.97;;;39.35;19.95
75998;BME280;64685;48.762;44.822;2023-07-28T08:55:43;99991.44;;;40.31;19.64
75998;BME280;64685;48.762;44.822;2023-07-28T09:00:49;99992.06;;;40.24;19.68
75998;BME280;64685;48.762;44.822;2023-07-28T09:05:52;99983.78;;;40.58;19.03
75998;BME280;64685;48.762;44.822;2023-07-28T09:10:55;100000.19;;;40.96;18.58
75998;BME280;64685;48.762;44.822;2023-07-28T09:15:57;99970.44;;;41.10;18.65
75998;BME280;64685;48.762;44.822;2023-07-28T09:21:00;99950.53;;;41.03;17.98
75998;BME280;64685;48.762;44.822;2023-07-28T09:26:03;99996.13;;;41.47;17.98
75998;BME280;64685;48.762;44.822;2023-07-28T09:31:09;99936.81;;;41.91;17.14
75998;BME280;64685;48.762;44.822;2023-07-28T09:36:14;99948.47;;;41.59;17.54
75998;BME280;64685;48.762;44.822;2023-07-28T09:41:23;99937.22;;;41.45;18.11
75998;BME280;64685;48.762;44.822;2023-07-28T09:46:28;99931.53;;;41.28;17.74
75998;BME280;64685;48.762;44.822;2023-07-28T09:51:34;99929.00;;;41.19;17.64
75998;BME280;64685;48.762;44.822;2023-07-28T09:56:39;99930.47;;;40.65;17.97
75998;BME280;64685;48.762;44.822;2023-07-28T10:01:44;99945.16;;;39.95;18.71
75998;BME280;64685;48.762;44.822;2023-07-28T10:06:51;99918.25;;;40.61;18.67
75998;BME280;64685;48.762;44.822;2023-07-28T10:11:59;99922.75;;;40.03;18.99
75998;BME280;64685;48.762;44.822;2023-07-28T10:17:03;99943.59;;;38.74;20.32
75998;BME280;64685;48.762;44.822;2023-07-28T10:22:08;99926.13;;;38.47;20.78
75998;BME280;64685;48.762;44.822;2023-07-28T10:27:11;99915.44;;;39.45;19.99
75998;BME280;64685;48.762;44.822;2023-07-28T10:32:37;99915.34;;;39.96;19.23
75998;BME280;64685;48.762;44.822;2023-07-28T10:37:45;99922.03;;;40.56;19.23
75998;BME280;64685;48.762;44.822;2023-07-28T10:42:51;99900.78;;;41.16;18.48
75998;BME280;64685;48.762;44.822;2023-07-28T10:47:56;99884.31;;;40.89;18.80
75998;BME280;64685;48.762;44.822;2023-07-28T10:52:59;99882.94;;;40.96;18.83
75998;BME280;64685;48.762;44.822;2023-07-28T10:58:01;99884.53;;;40.73;18.78
75998;BME280;64685;48.762;44.822;2023-07-28T11:03:04;99893.97;;;40.36;19.34
75998;BME280;64685;48.762;44.822;2023-07-28T11:08:07;99888.94;;;40.02;19.47
75998;BME280;64685;48.762;44.822;2023-07-28T11:13:10;99871.22;;;39.94;19.17
75998;BME280;64685;48.762;44.822;2023-07-28T11:18:34;99858.91;;;39.26;19.43
75998;BME280;64685;48.762;44.822;2023-07-28T11:23:36;99853.38;;;39.22;19.96
75998;BME280;64685;48.762;44.822;2023-07-28T11:28:40;99839.28;;;39.21;19.78
75998;BME280;64685;48.762;44.822;2023-07-28T11:33:42;99841.69;;;39.17;18.39
75998;BME280;64685;48.762;44.822;2023-07-28T11:38:45;99840.88;;;39.22;18.86
75998;BME280;64685;48.762;44.822;2023-07-28T11:43:49;99853.16;;;39.09;18.69
75998;BME280;64685;48.762;44.822;2023-07-28T11:48:52;99822.16;;;38.95;18.77
75998;BME280;64685;48.762;44.822;2023-07-28T11:53:55;99836.25;;;38.97;19.42
75998;BME280;64685;48.762;44.822;2023-07-28T11:58:58;99841.50;;;39.04;19.02
75998;BME280;64685;48.762;44.822;2023-07-28T12:04:26;99836.25;;;38.91;18.62
75998;BME280;64685;48.762;44.822;2023-07-28T12:14:48;99823.34;;;38.70;19.79
75998;BME280;64685;48.762;44.822;2023-07-28T12:20:13;99808.75;;;38.70;20.49
75998;BME280;64685;48.762;44.822;2023-07-28T12:25:18;99803.75;;;38.54;19.42
75998;BME280;64685;48.762;44.822;2023-07-28T12:30:21;99817.28;;;38.57;19.64
75998;BME280;64685;48.762;44.822;2023-07-28T12:35:24;99807.75;;;38.40;20.06
75998;BME280;64685;48.762;44.822;2023-07-28T12:40:49;99788.59;;;38.56;20.42
75998;BME280;64685;48.762;44.822;2023-07-28T12:45:54;99791.28;;;38.59;20.08
75998;BME280;64685;48.762;44.822;2023-07-28T12:51:00;99776.88;;;38.67;20.75
75998;BME280;64685;48.762;44.822;2023-07-28T12:56:05;99783.28;;;38.60;19.46
75998;BME280;64685;48.762;44.822;2023-07-28T13:01:08;99778.56;;;38.40;19.72
75998;BME280;64685;48.762;44.822;2023-07-28T13:06:13;99775.94;;;38.37;19.73
75998;BME280;64685;48.762;44.822;2023-07-28T13:11:15;99790.56;;;38.31;20.37
75998;BME280;64685;48.762;44.822;2023-07-28T13:16:19;99786.53;;;38.34;20.70
75998;BME280;64685;48.762;44.822;2023-07-28T13:21:21;99763.41;;;38.53;21.09
75998;BME280;64685;48.762;44.822;2023-07-28T13:26:24;99758.63;;;38.50;20.55
75998;BME280;64685;48.762;44.822;2023-07-28T13:31:28;99761.84;;;38.52;21.75
75998;BME280;64685;48.762;44.822;2023-07-28T13:36:31;99754.91;;;38.55;21.94
75998;BME280;64685;48.762;44.822;2023-07-28T13:41:34;99750.75;;;38.34;21.44
75998;BME280;64685;48.762;44.822;2023-07-28T13:46:36;99756.31;;;38.37;21.94
75998;BME280;64685;48.762;44.822;2023-07-28T13:51:39;99762.75;;;38.08;22.31
75998;BME280;64685;48.762;44.822;2023-07-28T13:56:45;99749.28;;;37.78;22.75
75998;BME280;64685;48.762;44.822;2023-07-28T14:01:50;99742.94;;;37.74;22.82
75998;BME280;64685;48.762;44.822;2023-07-28T14:06:53;99743.72;;;37.63;22.67
75998;BME280;64685;48.762;44.822;2023-07-28T14:11:56;99737.88;;;37.47;23.17
75998;BME280;64685;48.762;44.822;2023-07-28T14:16:58;99741.31;;;37.23;23.26
75998;BME280;64685;48.762;44.822;2023-07-28T14:22:01;99742.34;;;37.04;23.54
75998;BME280;64685;48.762;44.822;2023-07-28T14:27:05;99735.19;;;36.99;23.89
75998;BME280;64685;48.762;44.822;2023-07-28T14:32:08;99724.88;;;37.04;24.04
75998;BME280;64685;48.762;44.822;2023-07-28T14:37:10;99720.13;;;37.01;23.78
75998;BME280;64685;48.762;44.822;2023-07-28T14:42:13;99720.63;;;36.99;23.67
75998;BME280;64685;48.762;44.822;2023-07-28T14:47:16;99736.00;;;36.89;23.84
75998;BME280;64685;48.762;44.822;2023-07-28T14:52:18;99733.84;;;36.78;24.45
75998;BME280;64685;48.762;44.822;2023-07-28T14:57:21;99727.69;;;36.60;24.38
75998;BME280;64685;48.762;44.822;2023-07-28T15:02:35;99718.13;;;36.43;24.20
75998;BME280;64685;48.762;44.822;2023-07-28T15:07:41;99740.25;;;36.24;23.87
75998;BME280;64685;48.762;44.822;2023-07-28T15:12:43;99703.88;;;35.55;25.01
75998;BME280;64685;48.762;44.822;2023-07-28T15:17:47;99696.16;;;35.21;25.41
75998;BME280;64685;48.762;44.822;2023-07-28T15:22:50;99685.25;;;35.11;25.12
75998;BME280;64685;48.762;44.822;2023-07-28T15:27:53;99693.03;;;34.94;25.62
75998;BME280;64685;48.762;44.822;2023-07-28T15:32:56;99701.22;;;34.70;26.19
75998;BME280;64685;48.762;44.822;2023-07-28T15:37:59;99693.09;;;34.48;26.52
75998;BME280;64685;48.762;44.822;2023-07-28T15:43:01;99707.75;;;34.39;26.44
75998;BME280;64685;48.762;44.822;2023-07-28T15:48:04;99707.66;;;34.34;28.79
75998;BME280;64685;48.762;44.822;2023-07-28T15:53:07;99744.41;;;34.22;30.37
75998;BME280;64685;48.762;44.822;2023-07-28T15:58:10;99765.56;;;34.08;32.10
75998;BME280;64685;48.762;44.822;2023-07-28T16:03:12;99799.16;;;33.66;35.21
75998;BME280;64685;48.762;44.822;2023-07-28T16:08:15;99818.13;;;33.09;36.89
75998;BME280;64685;48.762;44.822;2023-07-28T16:13:17;99843.47;;;32.61;39.09
75998;BME280;64685;48.762;44.822;2023-07-28T16:18:20;99843.19;;;32.03;40.27
75998;BME280;64685;48.762;44.822;2023-07-28T16:23:23;99853.00;;;31.73;41.49
75998;BME280;64685;48.762;44.822;2023-07-28T16:28:25;99872.09;;;31.53;41.94
75998;BME280;64685;48.762;44.822;2023-07-28T16:33:28;99914.53;;;31.20;43.07
75998;BME280;64685;48.762;44.822;2023-07-28T16:38:30;99947.00;;;30.75;43.89
75998;BME280;64685;48.762;44.822;2023-07-28T16:43:33;99990.22;;;30.57;43.99
75998;BME280;64685;48.762;44.822;2023-07-28T16:48:36;100043.88;;;30.24;44.48
75998;BME280;64685;48.762;44.822;2023-07-28T16:53:39;100078.94;;;30.01;45.30
75998;BME280;64685;48.762;44.822;2023-07-28T16:58:41;100089.16;;;29.93;45.29
75998;BME280;64685;48.762;44.822;2023-07-28T17:03:44;100070.50;;;29.85;45.53
75998;BME280;64685;48.762;44.822;2023-07-28T17:08:47;100079.59;;;29.84;45.12
75998;BME280;64685;48.762;44.822;2023-07-28T17:13:49;100110.28;;;29.56;45.41
75998;BME280;64685;48.762;44.822;2023-07-28T17:18:52;100087.69;;;29.21;44.33
75998;BME280;64685;48.762;44.822;2023-07-28T17:23:55;100042.97;;;29.07;43.86
75998;BME280;64685;48.762;44.822;2023-07-28T17:28:57;100039.19;;;28.98;43.60
75998;BME280;64685;48.762;44.822;2023-07-28T17:34:00;100042.63;;;28.93;43.55
75998;BME280;64685;48.762;44.822;2023-07-28T17:39:03;100057.59;;;28.88;43.12
75998;BME280;64685;48.762;44.822;2023-07-28T17:44:05;100045.06;;;28.82;43.63
75998;BME280;64685;48.762;44.822;2023-07-28T17:49:08;100010.22;;;28.80;43.14
75998;BME280;64685;48.762;44.822;2023-07-28T17:54:11;100025.19;;;28.75;42.54
75998;BME280;64685;48.762;44.822;2023-07-28T17:59:14;100055.34;;;28.58;43.32
75998;BME280;64685;48.762;44.822;2023-07-28T18:04:16;100040.19;;;28.45;43.37
75998;BME280;64685;48.762;44.822;2023-07-28T18:09:19;100010.41;;;28.39;43.15
75998;BME280;64685;48.762;44.822;2023-07-28T18:14:22;99988.75;;;28.34;43.54
75998;BME280;64685;48.762;44.822;2023-07-28T18:19:24;100004.28;;;28.24;43.63
75998;BME280;64685;48.762;44.822;2023-07-28T18:24:27;99973.38;;;28.16;43.58
75998;BME280;64685;48.762;44.822;2023-07-28T18:29:30;99926.16;;;28.04;43.60
75998;BME280;64685;48.762;44.822;2023-07-28T18:34:32;99897.69;;;28.10;42.22
75998;BME280;64685;48.762;44.822;2023-07-28T18:39:35;99884.25;;;28.07;42.51
75998;BME280;64685;48.762;44.822;2023-07-28T18:44:39;99880.09;;;28.08;41.47
75998;BME280;64685;48.762;44.822;2023-07-28T18:49:42;99887.44;;;28.09;41.17
75998;BME280;64685;48.762;44.822;2023-07-28T18:54:45;99895.59;;;28.23;39.58
75998;BME280;64685;48.762;44.822;2023-07-28T18:59:47;99911.75;;;28.29;39.25
75998;BME280;64685;48.762;44.822;2023-07-28T19:04:50;99893.84;;;28.38;38.45
75998;BME280;64685;48.762;44.822;2023-07-28T19:09:52;99914.06;;;28.47;38.92
75998;BME280;64685;48.762;44.822;2023-07-28T19:14:55;99961.66;;;28.48;39.06
75998;BME280;64685;48.762;44.822;2023-07-28T19:19:58;99948.88;;;28.49;39.93
75998;BME280;64685;48.762;44.822;2023-07-28T19:25:01;99965.22;;;28.39;40.51
75998;BME280;64685;48.762;44.822;2023-07-28T19:30:06;99986.81;;;28.19;42.63
75998;BME280;64685;48.762;44.822;2023-07-28T19:35:09;100008.28;;;28.02;43.81
75998;BME280;64685;48.762;44.822;2023-07-28T19:40:11;100018.25;;;27.85;44.77
75998;BME280;64685;48.762;44.822;2023-07-28T19:45:14;100012.34;;;27.76;45.28
75998;BME280;64685;48.762;44.822;2023-07-28T19:50:17;100082.44;;;27.50;46.78
75998;BME280;64685;48.762;44.822;2023-07-28T19:55:43;100146.13;;;27.29;48.22
75998;BME280;64685;48.762;44.822;2023-07-28T20:00:49;100177.91;;;27.02;49.58
75998;BME280;64685;48.762;44.822;2023-07-28T20:05:52;100200.34;;;26.72;51.02
75998;BME280;64685;48.762;44.822;2023-07-28T20:10:55;100179.88;;;26.54;51.37
75998;BME280;64685;48.762;44.822;2023-07-28T20:15:57;100203.91;;;26.40;52.26
75998;BME280;64685;48.762;44.822;2023-07-28T20:21:00;100185.25;;;26.32;52.79
75998;BME280;64685;48.762;44.822;2023-07-28T20:26:05;100220.34;;;26.17;53.21
75998;BME280;64685;48.762;44.822;2023-07-28T20:31:08;100232.91;;;26.03;54.13
75998;BME280;64685;48.762;44.822;2023-07-28T20:36:11;100227.03;;;25.91;54.72
75998;BME280;64685;48.762;44.822;2023-07-28T20:41:14;100209.31;;;25.76;54.70
75998;BME280;64685;48.762;44.822;2023-07-28T20:46:19;100206.06;;;25.74;54.79
75998;BME280;64685;48.762;44.822;2023-07-28T20:51:22;100218.56;;;25.61;55.10
75998;BME280;64685;48.762;44.822;2023-07-28T20:56:24;100222.50;;;25.47;55.16
75998;BME280;64685;48.762;44.822;2023-07-28T21:01:27;100226.66;;;25.43;54.71
75998;BME280;64685;48.762;44.822;2023-07-28T21:06:33;100259.84;;;25.37;54.92
75998;BME280;64685;48.762;44.822;2023-07-28T21:11:38;100235.50;;;25.29;54.97
75998;BME280;64685;48.762;44.822;2023-07-28T21:16:41;100223.34;;;25.21;55.08
75998;BME280;64685;48.762;44.822;2023-07-28T21:21:43;100194.47;;;25.12;55.64
75998;BME280;64685;48.762;44.822;2023-07-28T21:26:46;100214.78;;;24.95;56.97
75998;BME280;64685;48.762;44.822;2023-07-28T21:31:49;100194.78;;;24.68;58.09
75998;BME280;64685;48.762;44.822;2023-07-28T21:36:52;100198.09;;;24.63;58.97
75998;BME280;64685;48.762;44.822;2023-07-28T21:41:55;100179.16;;;24.46;59.58
75998;BME280;64685;48.762;44.822;2023-07-28T21:46:58;100207.38;;;24.41;59.62
75998;BME280;64685;48.762;44.822;2023-07-28T21:52:01;100224.94;;;24.39;59.72
75998;BME280;64685;48.762;44.822;2023-07-28T21:57:03;100233.56;;;24.36;59.70
75998;BME280;64685;48.762;44.822;2023-07-28T22:02:06;100215.59;;;24.35;59.79
75998;BME280;64685;48.762;44.822;2023-07-28T22:07:11;100175.56;;;24.42;59.32
75998;BME280;64685;48.762;44.822;2023-07-28T22:12:18;100152.78;;;24.39;59.27
75998;BME280;64685;48.762;44.822;2023-07-28T22:17:20;100178.53;;;24.32;59.67
75998;BME280;64685;48.762;44.822;2023-07-28T22:22:23;100168.88;;;24.22;60.14
75998;BME280;64685;48.762;44.822;2023-07-28T22:27:26;100152.94;;;24.25;60.26
75998;BME280;64685;48.762;44.822;2023-07-28T22:32:29;100173.13;;;24.11;60.83
75998;BME280;64685;48.762;44.822;2023-07-28T22:37:31;100147.63;;;23.97;61.71
75998;BME280;64685;48.762;44.822;2023-07-28T22:42:34;100121.56;;;23.95;61.36
75998;BME280;64685;48.762;44.822;2023-07-28T22:47:37;100116.59;;;23.99;61.48
75998;BME280;64685;48.762;44.822;2023-07-28T22:52:39;100157.84;;;23.94;62.23
75998;BME280;64685;48.762;44.822;2023-07-28T22:57:43;100173.81;;;23.88;62.86
75998;BME280;64685;48.762;44.822;2023-07-28T23:02:46;100165.25;;;23.88;63.00
75998;BME280;64685;48.762;44.822;2023-07-28T23:07:49;100186.94;;;23.79;63.63
75998;BME280;64685;48.762;44.822;2023-07-28T23:12:52;100175.91;;;23.81;63.04
75998;BME280;64685;48.762;44.822;2023-07-28T23:17:54;100224.31;;;23.51;65.11
75998;BME280;64685;48.762;44.822;2023-07-28T23:22:57;100201.22;;;23.38;65.04
75998;BME280;64685;48.762;44.822;2023-07-28T23:28:00;100190.13;;;23.47;64.96
75998;BME280;64685;48.762;44.822;2023-07-28T23:33:03;100146.09;;;23.52;65.26
75998;BME280;64685;48.762;44.822;2023-07-28T23:38:08;100165.06;;;23.32;66.46
75998;BME280;64685;48.762;44.822;2023-07-28T23:43:11;100163.03;;;23.29;66.80
75998;BME280;64685;48.762;44.822;2023-07-28T23:48:14;100139.50;;;23.21;66.37
75998;BME280;64685;48.762;44.822;2023-07-28T23:53:16;100083.34;;;23.18;65.99
75998;BME280;64685;48.762;44.822;2023-07-28T23:58:19;100056.25;;;23.00;64.11
